createdAt,value
2023-03-01T00:04:11.078Z,226.80
2023-03-01T00:09:17.312Z,234.20
2023-03-01T00:14:20.206Z,214.30
2023-03-01T00:19:23.113Z,190.70
2023-03-01T00:24:26.001Z,174.60
2023-03-01T00:29:28.966Z,176.90
2023-03-01T00:34:31.906Z,174.80
2023-03-01T00:39:34.817Z,164.10
2023-03-01T00:44:37.660Z,182.50
2023-03-01T00:49:40.898Z,177.90
2023-03-01T00:54:43.832Z,179.80
2023-03-01T00:59:46.695Z,177.60
2023-03-01T01:04:50.191Z,179.20
2023-03-01T01:09:53.127Z,171.20
2023-03-01T01:14:56.113Z,154.30
2023-03-01T01:19:59.028Z,173.90
2023-03-01T01:25:01.991Z,194.30
2023-03-01T01:30:06.011Z,191.50
2023-03-01T01:35:09.118Z,197.00
2023-03-01T01:40:13.029Z,202.00
2023-03-01T01:45:36.721Z,205.60
2023-03-01T01:50:41.940Z,207.80
2023-03-01T01:55:52.774Z,183.30
2023-03-01T02:00:56.051Z,159.50
2023-03-01T02:06:12.857Z,162.00
2023-03-01T02:11:16.338Z,153.50
2023-03-01T02:16:19.715Z,156.20
2023-03-01T02:21:38.847Z,148.00
2023-03-01T02:26:48.635Z,141.50
2023-03-01T02:31:54.946Z,147.40
2023-03-01T02:37:10.677Z,137.50
2023-03-01T02:42:27.114Z,120.20
2023-03-01T02:47:30.184Z,122.50
2023-03-01T02:52:53.857Z,120.90
2023-03-01T02:57:57.409Z,115.40
2023-03-01T03:03:00.276Z,117.50
2023-03-01T03:08:04.300Z,102.40
2023-03-01T03:13:12.207Z,114.90
2023-03-01T03:18:17.979Z,104.10
2023-03-01T03:23:23.142Z,112.90
2023-03-01T03:28:26.035Z,99.80
2023-03-01T03:33:29.119Z,93.40
2023-03-01T03:38:32.033Z,95.50
2023-03-01T03:43:38.474Z,197.90
2023-03-01T03:48:45.289Z,150.40
2023-03-01T03:53:48.226Z,160.20
2023-03-01T03:58:51.106Z,378.30
2023-03-01T04:03:55.569Z,245.90
2023-03-01T04:09:01.024Z,117.10
2023-03-01T04:14:05.469Z,153.40
2023-03-01T04:19:10.605Z,153.20
2023-03-01T04:24:13.671Z,109.00
2023-03-01T04:29:16.571Z,105.00
2023-03-01T04:34:19.998Z,105.60
2023-03-01T04:39:22.937Z,103.40
2023-03-01T04:44:26.005Z,92.90
2023-03-01T04:49:28.847Z,118.30
2023-03-01T04:54:34.087Z,116.50
2023-03-01T04:59:37.248Z,92.50
2023-03-01T05:04:40.176Z,85.60
2023-03-01T05:09:43.070Z,89.90
2023-03-01T05:14:45.949Z,72.50
2023-03-01T05:19:48.862Z,68.10
2023-03-01T05:24:51.740Z,65.50
2023-03-01T05:29:54.696Z,62.90
2023-03-01T05:34:57.578Z,56.50
2023-03-01T05:40:00.463Z,78.70
2023-03-01T05:45:03.425Z,83.00
2023-03-01T05:50:08.421Z,81.40
2023-03-01T05:55:11.386Z,73.40
2023-03-01T06:00:17.936Z,93.40
2023-03-01T06:05:21.037Z,82.60
2023-03-01T06:10:24.057Z,98.60
2023-03-01T06:15:27.637Z,67.00
2023-03-01T06:20:30.620Z,62.50
2023-03-01T06:25:33.835Z,61.70
2023-03-01T06:30:36.721Z,63.20
2023-03-01T06:35:39.756Z,53.20
2023-03-01T06:40:42.696Z,64.80
2023-03-01T06:45:46.634Z,88.60
2023-03-01T06:56:01.077Z,78.60
2023-03-01T07:01:10.909Z,74.30
2023-03-01T07:06:13.797Z,63.90
2023-03-01T07:11:17.069Z,62.10
2023-03-01T07:16:21.508Z,79.70
2023-03-01T07:21:24.439Z,77.80
2023-03-01T07:26:27.337Z,69.30
2023-03-01T07:31:30.227Z,49.00
2023-03-01T07:36:33.193Z,67.20
2023-03-01T07:41:36.212Z,147.80
2023-03-01T07:46:39.118Z,65.90
2023-03-01T07:51:43.069Z,59.60
2023-03-01T08:01:48.781Z,65.20
2023-03-01T08:06:52.722Z,69.80
2023-03-01T08:12:00.496Z,55.70
2023-03-01T08:17:04.281Z,68.60
2023-03-01T08:22:07.273Z,56.60
2023-03-01T08:27:10.197Z,51.20
2023-03-01T08:32:13.458Z,40.80
2023-03-01T08:37:16.418Z,50.30
2023-03-01T08:42:19.319Z,51.00
2023-03-01T08:47:22.209Z,45.70
2023-03-01T08:52:25.593Z,74.50
2023-03-01T08:57:28.514Z,51.90
2023-03-01T09:02:31.493Z,42.20
2023-03-01T09:07:34.686Z,41.70
2023-03-01T09:12:37.628Z,47.20
2023-03-01T09:17:40.520Z,46.70
2023-03-01T09:22:43.540Z,37.90
2023-03-01T09:27:46.395Z,46.10
2023-03-01T09:32:49.283Z,40.50
2023-03-01T09:37:52.602Z,38.20
2023-03-01T09:43:16.656Z,33.00
2023-03-01T09:48:24.994Z,32.20
2023-03-01T09:53:36.245Z,42.60
2023-03-01T09:59:00.326Z,40.50
2023-03-01T10:04:44.856Z,39.60
2023-03-01T10:09:48.286Z,30.00
2023-03-01T10:15:20.674Z,40.50
2023-03-01T10:20:42.615Z,39.00
2023-03-01T10:25:51.566Z,44.00
2023-03-01T10:30:55.058Z,44.70
2023-03-01T10:35:58.188Z,35.90
2023-03-01T10:41:07.743Z,35.70
2023-03-01T10:46:37.790Z,37.90
2023-03-01T10:51:54.974Z,30.50
2023-03-01T10:57:06.532Z,49.80
2023-03-01T11:02:25.354Z,38.20
2023-03-01T11:07:29.140Z,39.00
2023-03-01T11:12:33.743Z,41.40
2023-03-01T11:17:53.236Z,42.70
2023-03-01T11:23:14.481Z,30.70
2023-03-01T11:28:20.613Z,58.60
2023-03-01T11:33:59.018Z,42.50
2023-03-01T11:39:15.034Z,38.30
2023-03-01T11:44:26.769Z,53.50
2023-03-01T11:50:31.980Z,43.10
2023-03-01T11:55:54.365Z,92.40
2023-03-01T12:01:21.756Z,34.90
2023-03-01T12:06:43.022Z,31.40
2023-03-01T12:12:22.430Z,32.70
2023-03-01T12:18:21.564Z,28.60
2023-03-01T12:24:08.610Z,33.00
2023-03-01T12:29:36.107Z,105.70
2023-03-01T12:35:06.843Z,30.30
2023-03-01T12:40:48.165Z,67.30
2023-03-01T12:46:06.344Z,39.10
2023-03-01T12:51:15.928Z,29.70
2023-03-01T12:56:30.025Z,32.50
2023-03-01T13:01:58.008Z,28.90
2023-03-01T13:07:09.009Z,28.00
2023-03-01T13:12:46.165Z,28.10
2023-03-01T13:17:50.478Z,26.90
2023-03-01T13:23:30.271Z,24.00
2023-03-01T13:28:33.101Z,27.10
2023-03-01T13:33:50.492Z,24.70
2023-03-01T13:38:56.426Z,23.70
2023-03-01T13:43:59.389Z,22.40
2023-03-01T13:49:02.393Z,25.50
2023-03-01T13:54:05.546Z,29.10
2023-03-01T13:59:16.821Z,24.70
2023-03-01T14:04:23.236Z,24.20
2023-03-01T14:09:32.562Z,253.00
2023-03-01T14:14:57.939Z,39.70
2023-03-01T14:20:10.029Z,31.90
2023-03-01T14:25:27.510Z,43.10
2023-03-01T14:30:43.445Z,23.00
2023-03-01T14:35:56.797Z,28.90
2023-03-01T14:41:06.822Z,24.40
2023-03-01T14:46:26.343Z,53.50
2023-03-01T14:51:29.666Z,28.10
2023-03-01T14:56:46.435Z,18.90
2023-03-01T15:01:50.953Z,25.10
2023-03-01T15:07:06.214Z,32.30
2023-03-01T15:12:28.169Z,23.00
2023-03-01T15:17:35.685Z,20.00
2023-03-01T15:22:38.874Z,29.70
2023-03-01T15:27:47.547Z,27.50
2023-03-01T15:33:27.988Z,24.00
2023-03-01T15:38:51.808Z,20.30
2023-03-01T15:43:56.886Z,37.60
2023-03-01T15:49:05.958Z,27.30
2023-03-01T15:54:20.128Z,33.80
2023-03-01T15:59:23.425Z,51.90
2023-03-01T16:04:26.386Z,57.40
2023-03-01T16:09:29.279Z,42.60
2023-03-01T16:14:32.171Z,41.70
2023-03-01T16:19:35.076Z,39.90
2023-03-01T16:24:38.075Z,40.40
2023-03-01T16:29:40.953Z,61.10
2023-03-01T16:34:43.859Z,117.60
2023-03-01T16:39:46.741Z,194.60
2023-03-01T16:44:49.646Z,171.90
2023-03-01T16:49:54.162Z,106.00
2023-03-01T16:54:57.141Z,446.90
2023-03-01T17:00:00.043Z,206.90
2023-03-01T17:05:04.395Z,243.20
2023-03-01T17:10:11.936Z,284.10
2023-03-01T17:15:14.865Z,252.30
2023-03-01T17:20:18.345Z,226.50
2023-03-01T17:25:21.258Z,297.30
2023-03-01T17:30:24.210Z,297.00
2023-03-01T17:35:27.245Z,291.00
2023-03-01T17:40:30.998Z,268.50
2023-03-01T17:45:34.494Z,241.20
2023-03-01T17:50:38.974Z,218.90
2023-03-01T17:55:43.653Z,247.10
2023-03-01T18:00:46.695Z,181.00
2023-03-01T18:05:50.788Z,151.60
2023-03-01T18:16:09.235Z,138.40
2023-03-01T18:21:13.752Z,108.10
2023-03-01T18:26:17.809Z,103.00
2023-03-01T18:31:22.827Z,113.20
2023-03-01T18:36:31.514Z,111.40
2023-03-01T18:41:35.839Z,108.50
2023-03-01T18:46:40.224Z,126.60
2023-03-01T18:51:43.797Z,145.70
2023-03-01T18:56:46.860Z,249.10
2023-03-01T19:01:49.857Z,222.50
2023-03-01T19:06:52.852Z,241.60
2023-03-01T19:11:58.943Z,245.60
2023-03-01T19:17:02.026Z,291.60
2023-03-01T19:22:06.527Z,336.20
2023-03-01T19:27:09.516Z,300.90
2023-03-01T19:32:12.698Z,267.60
2023-03-01T19:37:15.640Z,247.60
2023-03-01T19:42:18.590Z,225.60
2023-03-01T19:47:21.536Z,188.50
2023-03-01T19:52:24.655Z,268.90
2023-03-01T19:57:27.532Z,331.50
2023-03-01T20:02:30.443Z,275.30
2023-03-01T20:07:33.468Z,308.20
2023-03-01T20:12:37.359Z,254.70
2023-03-01T20:22:43.366Z,239.30
2023-03-01T20:27:47.623Z,182.70
2023-03-01T20:32:50.633Z,198.50
2023-03-01T20:37:54.020Z,185.80
2023-03-01T20:43:01.359Z,196.20
2023-03-01T20:48:04.434Z,194.10
2023-03-01T20:53:07.377Z,200.60
2023-03-01T20:58:10.290Z,191.90
2023-03-01T21:03:13.137Z,186.50
2023-03-01T21:08:16.115Z,195.60
2023-03-01T21:13:19.914Z,202.50
2023-03-01T21:18:23.571Z,224.30
2023-03-01T21:23:28.993Z,219.30
2023-03-01T21:28:33.448Z,200.30
2023-03-01T21:33:38.141Z,211.80
2023-03-01T21:38:44.084Z,223.20
2023-03-01T21:43:49.611Z,244.30
2023-03-01T21:48:54.855Z,325.10
2023-03-01T21:54:01.380Z,298.20
2023-03-01T21:59:05.670Z,292.80
2023-03-01T22:04:08.727Z,316.00
2023-03-01T22:09:21.299Z,292.70
2023-03-01T22:14:25.038Z,245.00
2023-03-01T22:19:28.807Z,247.40
2023-03-01T22:24:31.747Z,461.20
2023-03-01T22:29:34.936Z,365.80
2023-03-01T22:34:37.862Z,297.30
2023-03-01T22:39:40.719Z,181.00
2023-03-01T22:44:43.738Z,198.20
2023-03-01T22:49:46.634Z,162.50
2023-03-01T22:54:49.528Z,134.70
2023-03-01T22:59:52.394Z,131.70
2023-03-01T23:04:55.421Z,107.00
2023-03-01T23:10:02.429Z,117.50
2023-03-01T23:15:06.507Z,136.20
2023-03-01T23:20:10.534Z,125.90
2023-03-01T23:25:13.484Z,178.80
2023-03-01T23:30:16.593Z,291.40
2023-03-01T23:35:19.515Z,216.40
2023-03-01T23:40:22.490Z,117.00
2023-03-01T23:45:25.388Z,99.50
2023-03-01T23:50:28.278Z,99.80
2023-03-01T23:55:31.259Z,99.00
